Airfield :







YOU CAN JOIN US ON...

 
LOGIN :

Register | Disclaimer

   EN    FR    IT 

 









Legend :    VFR   Marginal VFR   IFR   Intensive IFR   Very Intensive IFR
Visi :
Ceiling :
>= 8 km
>= 3000ft
5 to 8 km
1000 to 3000 ft
1500m to 5 km
500 to 1000 ft
800 to 1500m
200 to 500 ft
< 800m
< 200 ft
Symbols :   Thunderstorms  Fog  Heavy snow  Heavy precipitations  Wind > 20 kt







- Airport Elevation : 124 ft
- IATA code : YGV


CYGV - Havre St Pierre

CURRENT METAR :
  • 221400Z AUTO 31008KT 9SM FEW240 06/M00 A3017 RMK SLP220

EXPIRED METARs :
  • 221300Z AUTO 32008KT 9SM CLR 05/00 A3016 RMK SLP217
  • 221200Z AUTO 33012G18KT 9SM FEW220 04/01 A3013 RMK SLP206
  • 221157Z AUTO 33014KT 9SM FEW220 04/01 A3013 RMK SLP206

TAF TAF CYGV
Valid from the 22 at 14:00 until the 23 at 02:00 UTC


221338Z 2214/2302 32008KT P6SM FEW220
BECMG 2214/2216 28008KT
BECMG 2222/2224 02008KT RMK FCST BASED ON AUTO OBS. NXT FCST BY 222000Z
CZUL FIR / North America



MET'MAP, your aeronautical weather chart ! - Copyright ORBIFLY December 2007 - Disclaimer

ORBIFLY MET'MAP TEAM :

Programming & Development : Alexandra Zaïnal
Concept & Development : Baudouin d'Aumeries
Co-Development & Prog : Marc-Olivier Méhu
Technical & hardware support : Manuel Goepfert

Contact : metmap@orbifly.com




SOURCES & CREDITS :

   NOAA